DWI250 MDPC-TJSJ
Flight info
| Callsign | DWI250 |
|---|---|
| Flight time | 0h 30m |
| Altitude | 17000 |
| Route | MELLA2T MELLA G633 MAZ RTE12 JOSHE |
| Aircraft | B38M/M-SDE1FGHILORVWXY/HB1 |
Departure
| Time | 2026-05-08 01:19 |
|---|---|
| Airport | Punta Cana International Airport (MDPC) |
Arrival
| Time | 2026-05-08 01:50 |
|---|---|
| Airport | Luis Munoz Marin International Airport (TJSJ) |
| Time | Latitude | Longitude | Altitude | Speed | Heading |
|---|---|---|---|---|---|
| 2026-05-08 00:51 | 18.56405 | -68.36800 | 47 ft | 0 kts | 264° |
| 2026-05-08 01:10 | 18.56406 | -68.36782 | 48 ft | 4 kts | 279° |
| 2026-05-08 01:10 | 18.56396 | -68.36758 | 49 ft | 4 kts | 316° |
| 2026-05-08 01:11 | 18.56373 | -68.36744 | 49 ft | 4 kts | 346° |
| 2026-05-08 01:11 | 18.56356 | -68.36741 | 48 ft | 0 kts | 355° |
| 2026-05-08 01:15 | 18.56362 | -68.36742 | 51 ft | 2 kts | 355° |
| 2026-05-08 01:15 | 18.56414 | -68.36747 | 51 ft | 13 kts | 354° |
| 2026-05-08 01:15 | 18.56507 | -68.36768 | 53 ft | 14 kts | 316° |
| 2026-05-08 01:15 | 18.56518 | -68.36873 | 50 ft | 16 kts | 266° |
| 2026-05-08 01:16 | 18.56507 | -68.36995 | 48 ft | 18 kts | 263° |
| 2026-05-08 01:16 | 18.56493 | -68.37135 | 52 ft | 20 kts | 264° |
| 2026-05-08 01:16 | 18.56479 | -68.37292 | 52 ft | 23 kts | 265° |
| 2026-05-08 01:16 | 18.56464 | -68.37464 | 52 ft | 25 kts | 265° |
| 2026-05-08 01:17 | 18.56449 | -68.37651 | 51 ft | 27 kts | 265° |
| 2026-05-08 01:17 | 18.56496 | -68.37786 | 51 ft | 21 kts | 346° |
| 2026-05-08 01:17 | 18.56649 | -68.37805 | 49 ft | 22 kts | 346° |
| 2026-05-08 01:17 | 18.56735 | -68.37929 | 50 ft | 22 kts | 294° |
| 2026-05-08 01:18 | 18.56800 | -68.38081 | 52 ft | 23 kts | 294° |
| 2026-05-08 01:18 | 18.56859 | -68.38215 | 52 ft | 15 kts | 300° |
| 2026-05-08 01:18 | 18.56949 | -68.38267 | 56 ft | 16 kts | 351° |
| 2026-05-08 01:18 | 18.57045 | -68.38247 | 56 ft | 16 kts | 60° |
| 2026-05-08 01:19 | 18.57109 | -68.38029 | 56 ft | 68 kts | 73° |
| 2026-05-08 01:19 | 18.57329 | -68.37255 | 53 ft | 149 kts | 73° |
| 2026-05-08 01:19 | 18.57660 | -68.36041 | 370 ft | 195 kts | 75° |
| 2026-05-08 01:19 | 18.58009 | -68.34548 | 1007 ft | 226 kts | 76° |
| 2026-05-08 01:20 | 18.58391 | -68.33171 | 2223 ft | 221 kts | 73° |
| 2026-05-08 01:20 | 18.58710 | -68.31965 | 2999 ft | 234 kts | 81° |
| 2026-05-08 01:20 | 18.58513 | -68.30267 | 3748 ft | 253 kts | 114° |
| 2026-05-08 01:20 | 18.57384 | -68.28797 | 4344 ft | 266 kts | 140° |
| 2026-05-08 01:21 | 18.55880 | -68.27650 | 4474 ft | 267 kts | 141° |
| 2026-05-08 01:21 | 18.54389 | -68.26473 | 4640 ft | 268 kts | 141° |
| 2026-05-08 01:21 | 18.52900 | -68.25283 | 4790 ft | 269 kts | 141° |
| 2026-05-08 01:21 | 18.51431 | -68.24102 | 4908 ft | 270 kts | 141° |
| 2026-05-08 01:22 | 18.49935 | -68.22894 | 5001 ft | 272 kts | 141° |
| 2026-05-08 01:22 | 18.48433 | -68.21677 | 5024 ft | 273 kts | 141° |
| 2026-05-08 01:22 | 18.46909 | -68.20487 | 5354 ft | 271 kts | 143° |
| 2026-05-08 01:22 | 18.45377 | -68.19326 | 6477 ft | 273 kts | 143° |
| 2026-05-08 01:23 | 18.43813 | -68.18135 | 7280 ft | 281 kts | 143° |
| 2026-05-08 01:23 | 18.42259 | -68.16952 | 7504 ft | 265 kts | 143° |
| 2026-05-08 01:23 | 18.40828 | -68.15862 | 7709 ft | 244 kts | 142° |
| 2026-05-08 01:23 | 18.39453 | -68.14812 | 7896 ft | 250 kts | 142° |
| 2026-05-08 01:24 | 18.37991 | -68.13697 | 8275 ft | 265 kts | 142° |
| 2026-05-08 01:24 | 18.36467 | -68.12534 | 9060 ft | 279 kts | 143° |
| 2026-05-08 01:24 | 18.34853 | -68.11304 | 9785 ft | 293 kts | 142° |
| 2026-05-08 01:24 | 18.33161 | -68.10015 | 10439 ft | 309 kts | 142° |
| 2026-05-08 01:25 | 18.31365 | -68.08646 | 10910 ft | 329 kts | 143° |
| 2026-05-08 01:25 | 18.29450 | -68.07188 | 11305 ft | 350 kts | 143° |
| 2026-05-08 01:25 | 18.27422 | -68.05643 | 11647 ft | 370 kts | 143° |
| 2026-05-08 01:25 | 18.25282 | -68.04015 | 11917 ft | 389 kts | 143° |
| 2026-05-08 01:26 | 18.23068 | -68.02259 | 12169 ft | 405 kts | 136° |
| 2026-05-08 01:26 | 18.21363 | -67.99904 | 12701 ft | 407 kts | 115° |
| 2026-05-08 01:26 | 18.20516 | -67.97070 | 13292 ft | 409 kts | 96° |
| 2026-05-08 01:26 | 18.20482 | -67.94089 | 13927 ft | 409 kts | 85° |
| 2026-05-08 01:27 | 18.20647 | -67.91085 | 14442 ft | 412 kts | 85° |
| 2026-05-08 01:27 | 18.20829 | -67.88074 | 15035 ft | 413 kts | 84° |
| 2026-05-08 01:27 | 18.21024 | -67.85053 | 15596 ft | 415 kts | 84° |
| 2026-05-08 01:27 | 18.21227 | -67.82018 | 16163 ft | 416 kts | 84° |
| 2026-05-08 01:28 | 18.21433 | -67.78982 | 16699 ft | 418 kts | 85° |
| 2026-05-08 01:28 | 18.21639 | -67.75918 | 16932 ft | 420 kts | 84° |
| 2026-05-08 01:28 | 18.21846 | -67.72854 | 16996 ft | 419 kts | 85° |
| 2026-05-08 01:28 | 18.22051 | -67.69794 | 16997 ft | 419 kts | 84° |
| 2026-05-08 01:29 | 18.22256 | -67.66743 | 17002 ft | 418 kts | 85° |
| 2026-05-08 01:29 | 18.22458 | -67.63727 | 17001 ft | 419 kts | 85° |
| 2026-05-08 01:29 | 18.22664 | -67.60632 | 17003 ft | 419 kts | 84° |
| 2026-05-08 01:29 | 18.22865 | -67.57621 | 17003 ft | 419 kts | 85° |
| 2026-05-08 01:30 | 18.23067 | -67.54566 | 17001 ft | 419 kts | 85° |
| 2026-05-08 01:30 | 18.23270 | -67.51511 | 17003 ft | 419 kts | 85° |
| 2026-05-08 01:30 | 18.23475 | -67.48409 | 17004 ft | 419 kts | 85° |
| 2026-05-08 01:30 | 18.23673 | -67.45394 | 17002 ft | 419 kts | 85° |
| 2026-05-08 01:31 | 18.23875 | -67.42340 | 17003 ft | 419 kts | 85° |
| 2026-05-08 01:31 | 18.24075 | -67.39283 | 17004 ft | 419 kts | 85° |
| 2026-05-08 01:31 | 18.24276 | -67.36224 | 17003 ft | 419 kts | 85° |
| 2026-05-08 01:31 | 18.24475 | -67.33170 | 17000 ft | 415 kts | 85° |
| 2026-05-08 01:32 | 18.24667 | -67.30216 | 16990 ft | 397 kts | 85° |
| 2026-05-08 01:32 | 18.24854 | -67.27347 | 16594 ft | 391 kts | 85° |
| 2026-05-08 01:32 | 18.25038 | -67.24509 | 16177 ft | 386 kts | 85° |
| 2026-05-08 01:32 | 18.25220 | -67.21701 | 15724 ft | 384 kts | 85° |
| 2026-05-08 01:33 | 18.25401 | -67.18902 | 15265 ft | 382 kts | 85° |
| 2026-05-08 01:33 | 18.25580 | -67.16122 | 14814 ft | 380 kts | 85° |
| 2026-05-08 01:33 | 18.25566 | -67.13330 | 14260 ft | 383 kts | 90° |
| 2026-05-08 01:33 | 18.25488 | -67.10531 | 13803 ft | 382 kts | 90° |
| 2026-05-08 01:34 | 18.25424 | -67.07748 | 13340 ft | 379 kts | 90° |
| 2026-05-08 01:34 | 18.25366 | -67.04985 | 12855 ft | 377 kts | 90° |
| 2026-05-08 01:34 | 18.25312 | -67.02237 | 12419 ft | 374 kts | 90° |
| 2026-05-08 01:34 | 18.25259 | -66.99513 | 11980 ft | 371 kts | 90° |
| 2026-05-08 01:35 | 18.25206 | -66.96812 | 11544 ft | 368 kts | 90° |
| 2026-05-08 01:35 | 18.25154 | -66.94145 | 11277 ft | 360 kts | 90° |
| 2026-05-08 01:35 | 18.25103 | -66.91547 | 11107 ft | 350 kts | 90° |
| 2026-05-08 01:35 | 18.25052 | -66.89025 | 10944 ft | 340 kts | 90° |
| 2026-05-08 01:36 | 18.25004 | -66.86603 | 10794 ft | 331 kts | 90° |
| 2026-05-08 01:36 | 18.24956 | -66.84214 | 10621 ft | 322 kts | 90° |
| 2026-05-08 01:36 | 18.24909 | -66.81887 | 10474 ft | 314 kts | 90° |
| 2026-05-08 01:36 | 18.24863 | -66.79624 | 10320 ft | 305 kts | 90° |
| 2026-05-08 01:37 | 18.24818 | -66.77421 | 10173 ft | 297 kts | 90° |
| 2026-05-08 01:37 | 18.24774 | -66.75278 | 9988 ft | 290 kts | 90° |
| 2026-05-08 01:37 | 18.24731 | -66.73158 | 9653 ft | 289 kts | 90° |
| 2026-05-08 01:37 | 18.24687 | -66.71051 | 9320 ft | 288 kts | 90° |
| 2026-05-08 01:38 | 18.24643 | -66.68952 | 9007 ft | 286 kts | 90° |
| 2026-05-08 01:38 | 18.24599 | -66.66872 | 8707 ft | 284 kts | 90° |
| 2026-05-08 01:38 | 18.24556 | -66.64803 | 8401 ft | 282 kts | 90° |
| 2026-05-08 01:38 | 18.24511 | -66.62743 | 8096 ft | 281 kts | 90° |
| 2026-05-08 01:39 | 18.24478 | -66.60696 | 7798 ft | 279 kts | 90° |
| 2026-05-08 01:39 | 18.24431 | -66.58662 | 7543 ft | 277 kts | 90° |
| 2026-05-08 01:39 | 18.24384 | -66.56663 | 7385 ft | 269 kts | 90° |
| 2026-05-08 01:39 | 18.24341 | -66.54725 | 7284 ft | 261 kts | 90° |
| 2026-05-08 01:40 | 18.24300 | -66.52856 | 7143 ft | 250 kts | 90° |
| 2026-05-08 01:40 | 18.24273 | -66.51080 | 7072 ft | 235 kts | 86° |
| 2026-05-08 01:40 | 18.24736 | -66.49475 | 6869 ft | 230 kts | 58° |
| 2026-05-08 01:40 | 18.25602 | -66.48067 | 6716 ft | 230 kts | 57° |
| 2026-05-08 01:41 | 18.26470 | -66.46659 | 6566 ft | 229 kts | 57° |
| 2026-05-08 01:41 | 18.27343 | -66.45257 | 6393 ft | 229 kts | 57° |
| 2026-05-08 01:41 | 18.28219 | -66.43860 | 6209 ft | 228 kts | 56° |
| 2026-05-08 01:41 | 18.29094 | -66.42475 | 6064 ft | 227 kts | 56° |
| 2026-05-08 01:42 | 18.30155 | -66.41270 | 5888 ft | 226 kts | 31° |
| 2026-05-08 01:42 | 18.31641 | -66.40771 | 5761 ft | 227 kts | 8° |
| 2026-05-08 01:42 | 18.33220 | -66.40627 | 5695 ft | 229 kts | 6° |
| 2026-05-08 01:42 | 18.34808 | -66.40508 | 5517 ft | 229 kts | 5° |
| 2026-05-08 01:43 | 18.36369 | -66.40247 | 5295 ft | 226 kts | 26° |
| 2026-05-08 01:43 | 18.37500 | -66.39163 | 5082 ft | 222 kts | 60° |
| 2026-05-08 01:43 | 18.38065 | -66.37660 | 4911 ft | 222 kts | 73° |
| 2026-05-08 01:43 | 18.38510 | -66.36104 | 4765 ft | 223 kts | 73° |
| 2026-05-08 01:44 | 18.38967 | -66.34546 | 4541 ft | 222 kts | 72° |
| 2026-05-08 01:44 | 18.39430 | -66.32994 | 4344 ft | 221 kts | 73° |
| 2026-05-08 01:44 | 18.39893 | -66.31453 | 4150 ft | 220 kts | 73° |
| 2026-05-08 01:44 | 18.40357 | -66.29922 | 3973 ft | 219 kts | 73° |
| 2026-05-08 01:45 | 18.40814 | -66.28413 | 3807 ft | 219 kts | 73° |
| 2026-05-08 01:45 | 18.41278 | -66.26890 | 3601 ft | 218 kts | 73° |
| 2026-05-08 01:45 | 18.41738 | -66.25377 | 3429 ft | 217 kts | 73° |
| 2026-05-08 01:45 | 18.42196 | -66.23870 | 3259 ft | 216 kts | 73° |
| 2026-05-08 01:46 | 18.42652 | -66.22370 | 3065 ft | 214 kts | 72° |
| 2026-05-08 01:46 | 18.43058 | -66.20874 | 2971 ft | 212 kts | 78° |
| 2026-05-08 01:46 | 18.43272 | -66.19343 | 2984 ft | 211 kts | 85° |
| 2026-05-08 01:46 | 18.43359 | -66.17798 | 3016 ft | 212 kts | 88° |
| 2026-05-08 01:47 | 18.43386 | -66.16247 | 2959 ft | 213 kts | 89° |
| 2026-05-08 01:47 | 18.43386 | -66.14686 | 2623 ft | 213 kts | 90° |
| 2026-05-08 01:47 | 18.43382 | -66.13129 | 2278 ft | 212 kts | 90° |
| 2026-05-08 01:48 | 18.43375 | -66.10053 | 1599 ft | 207 kts | 90° |
| 2026-05-08 01:48 | 18.43372 | -66.08597 | 1363 ft | 195 kts | 90° |
| 2026-05-08 01:48 | 18.43368 | -66.07665 | 1170 ft | 189 kts | 90° |
| 2026-05-08 01:48 | 18.43367 | -66.06323 | 962 ft | 179 kts | 90° |
| 2026-05-08 01:49 | 18.43363 | -66.05027 | 756 ft | 170 kts | 90° |
| 2026-05-08 01:49 | 18.43360 | -66.03857 | 527 ft | 151 kts | 89° |
| 2026-05-08 01:49 | 18.43359 | -66.02780 | 303 ft | 146 kts | 90° |
| 2026-05-08 01:49 | 18.43354 | -66.01724 | 121 ft | 141 kts | 90° |
| 2026-05-08 01:50 | 18.43359 | -66.00757 | 24 ft | 123 kts | 90° |
| 2026-05-08 01:50 | 18.43353 | -66.00091 | 19 ft | 45 kts | 89° |
| 2026-05-08 01:50 | 18.43416 | -65.99902 | 19 ft | 16 kts | 55° |
| 2026-05-08 01:50 | 18.43452 | -65.99859 | 19 ft | 0 kts | 46° |
| 2026-05-08 01:51 | 18.43457 | -65.99854 | 19 ft | 2 kts | 46° |
| 2026-05-08 01:51 | 18.43476 | -65.99835 | 19 ft | 5 kts | 36° |
| 2026-05-08 01:51 | 18.43518 | -65.99818 | 19 ft | 8 kts | 8° |
| 2026-05-08 01:51 | 18.43559 | -65.99851 | 19 ft | 9 kts | 285° |
| 2026-05-08 01:52 | 18.43564 | -65.99939 | 19 ft | 13 kts | 280° |
| 2026-05-08 01:52 | 18.43642 | -65.99978 | 19 ft | 14 kts | 356° |
| 2026-05-08 01:52 | 18.43746 | -66.00005 | 19 ft | 17 kts | 337° |
| 2026-05-08 01:52 | 18.43788 | -66.00093 | 20 ft | 16 kts | 255° |
| 2026-05-08 01:53 | 18.43764 | -66.00169 | 19 ft | 0 kts | 234° |
| 2026-05-08 01:53 | 18.43724 | -66.00174 | 19 ft | 11 kts | 177° |
| 2026-05-08 01:53 | 18.43710 | -66.00174 | 19 ft | 0 kts | 181° |